Check out our new PWSWeather beta!
PWSweather.com
Personal Weather Stations
Station Observations
CASADEMAC
Montana Del Mar, Glendale, AZ 85308

Montana Del MarGlendale, AZ 85308

Lat: 33.6815163, Lon: -112.1432361

Elevation: 1360

Station Type: Ambient Weather WS-2902

High Low Average
Temperature 72.0°F22.2°F 41.5°F5.3°F 56.6°F13.7°F
Dew Point 51.1°F10.6°F 21.7°F-5.7°F 44.0°F6.7°F
Winds 6.7 mph -10.8 mph - Calm Calm 0.9 mph 1.4 mph
Wind Gusts 8.1 mph13.0 mph -- 1.3 mph2.1 mph
Humidity 96% 22% 67%
Pressure 30.01 in1016.30 in 29.81 in1009.50 in -
Precipitation 0.00 in0.00 in - -
Hour Temp Dew Point Humidity Winds Wind Gusts Pressure Precip Precip Rate Daily Precip Total
12:02 AM 47.3°F8.5°C 43.7°F6.5°C 87% Calm Calm -- 30.00 in1015.9 mb 0.00 in0.0 mm 0.00 in0.0 mm 0.00 in0.0 mm
12:07 AM 47.5°F8.6°C 43.9°F6.6°C 87% Calm Calm -- 29.99 in1015.6 mb 0.00 in0.0 mm 0.00 in0.0 mm 0.00 in0.0 mm
12:12 AM 47.1°F8.4°C 43.7°F6.5°C 88% Calm Calm -- 29.99 in1015.6 mb 0.00 in0.0 mm 0.00 in0.0 mm 0.00 in0.0 mm
12:17 AM 47.3°F8.5°C 43.7°F6.5°C 87% Calm Calm -- 30.00 in1015.9 mb 0.00 in0.0 mm 0.00 in0.0 mm 0.00 in0.0 mm
12:22 AM 47.3°F8.5°C 43.7°F6.5°C 87% Calm Calm -- 29.99 in1015.6 mb 0.00 in0.0 mm 0.00 in0.0 mm 0.00 in0.0 mm
12:27 AM 46.9°F8.3°C 43.3°F6.3°C 87% Calm Calm -- 29.99 in1015.6 mb 0.00 in0.0 mm 0.00 in0.0 mm 0.00 in0.0 mm
12:32 AM 46.9°F8.3°C 43.3°F6.3°C 87% Calm Calm -- 29.99 in1015.6 mb 0.00 in0.0 mm 0.00 in0.0 mm 0.00 in0.0 mm
12:37 AM 47.3°F8.5°C 43.7°F6.5°C 87% Calm Calm -- 29.99 in1015.6 mb 0.00 in0.0 mm 0.00 in0.0 mm 0.00 in0.0 mm
12:42 AM 47.5°F8.6°C 43.5°F6.4°C 86% Calm Calm -- 30.00 in1015.9 mb 0.00 in0.0 mm 0.00 in0.0 mm 0.00 in0.0 mm
12:47 AM 47.3°F8.5°C 43.3°F6.3°C 86% 0.7 mph S1.1 kmh S 1.1 mph1.8 kmh 30.00 in1015.9 mb 0.00 in0.0 mm 0.00 in0.0 mm 0.00 in0.0 mm
12:52 AM 47.7°F8.7°C 43.3°F6.3°C 85% 0.2 mph N0.3 kmh N 1.1 mph1.8 kmh 30.00 in1015.9 mb 0.00 in0.0 mm 0.00 in0.0 mm 0.00 in0.0 mm
12:57 AM 48.0°F8.9°C 43.7°F6.5°C 85% Calm Calm -- 30.00 in1015.9 mb 0.00 in0.0 mm 0.00 in0.0 mm 0.00 in0.0 mm
01:02 AM 47.8°F8.8°C 43.5°F6.4°C 85% Calm Calm -- 30.00 in1015.9 mb 0.00 in0.0 mm 0.00 in0.0 mm 0.00 in0.0 mm
01:07 AM 47.7°F8.7°C 43.7°F6.5°C 86% Calm Calm -- 30.00 in1015.9 mb 0.00 in0.0 mm 0.00 in0.0 mm 0.00 in0.0 mm
01:12 AM 47.5°F8.6°C 43.5°F6.4°C 86% Calm Calm -- 30.00 in1015.9 mb 0.00 in0.0 mm 0.00 in0.0 mm 0.00 in0.0 mm
01:17 AM 47.3°F8.5°C 43.7°F6.5°C 87% Calm Calm -- 30.00 in1015.9 mb 0.00 in0.0 mm 0.00 in0.0 mm 0.00 in0.0 mm
01:22 AM 46.9°F8.3°C 43.3°F6.3°C 87% Calm Calm -- 30.00 in1015.9 mb 0.00 in0.0 mm 0.00 in0.0 mm 0.00 in0.0 mm
01:27 AM 46.6°F8.1°C 43.2°F6.2°C 88% Calm Calm -- 30.00 in1015.9 mb 0.00 in0.0 mm 0.00 in0.0 mm 0.00 in0.0 mm
01:32 AM 45.9°F7.7°C 42.4°F5.8°C 88% Calm Calm -- 29.99 in1015.6 mb 0.00 in0.0 mm 0.00 in0.0 mm 0.00 in0.0 mm
01:37 AM 45.7°F7.6°C 42.6°F5.9°C 89% Calm Calm -- 29.99 in1015.6 mb 0.00 in0.0 mm 0.00 in0.0 mm 0.00 in0.0 mm
01:42 AM 45.3°F7.4°C 42.6°F5.9°C 90% Calm Calm -- 30.00 in1015.9 mb 0.00 in0.0 mm 0.00 in0.0 mm 0.00 in0.0 mm
01:47 AM 45.7°F7.6°C 43.0°F6.1°C 90% Calm Calm -- 30.00 in1015.9 mb 0.00 in0.0 mm 0.00 in0.0 mm 0.00 in0.0 mm
01:52 AM 45.7°F7.6°C 43.0°F6.1°C 90% Calm Calm -- 29.99 in1015.6 mb 0.00 in0.0 mm 0.00 in0.0 mm 0.00 in0.0 mm
01:57 AM 45.5°F7.5°C 42.8°F6.0°C 90% Calm Calm -- 29.99 in1015.6 mb 0.00 in0.0 mm 0.00 in0.0 mm 0.00 in0.0 mm
02:02 AM 45.1°F7.3°C 42.4°F5.8°C 90% Calm Calm -- 29.99 in1015.6 mb 0.00 in0.0 mm 0.00 in0.0 mm 0.00 in0.0 mm
02:07 AM 45.0°F7.2°C 42.6°F5.9°C 91% Calm Calm -- 29.99 in1015.6 mb 0.00 in0.0 mm 0.00 in0.0 mm 0.00 in0.0 mm
02:12 AM 44.8°F7.1°C 42.4°F5.8°C 91% Calm Calm -- 29.99 in1015.6 mb 0.00 in0.0 mm 0.00 in0.0 mm 0.00 in0.0 mm
02:17 AM 44.6°F7.0°C 42.3°F5.7°C 91% Calm Calm -- 29.99 in1015.6 mb 0.00 in0.0 mm 0.00 in0.0 mm 0.00 in0.0 mm
02:22 AM 45.0°F7.2°C 42.6°F5.9°C 91% Calm Calm -- 29.99 in1015.6 mb 0.00 in0.0 mm 0.00 in0.0 mm 0.00 in0.0 mm
02:27 AM 45.0°F7.2°C 42.6°F5.9°C 91% Calm Calm -- 29.99 in1015.6 mb 0.00 in0.0 mm 0.00 in0.0 mm 0.00 in0.0 mm
02:32 AM 45.1°F7.3°C 42.8°F6.0°C 91% Calm Calm -- 29.98 in1015.2 mb 0.00 in0.0 mm 0.00 in0.0 mm 0.00 in0.0 mm
02:37 AM 44.8°F7.1°C 42.4°F5.8°C 91% Calm Calm -- 29.98 in1015.2 mb 0.00 in0.0 mm 0.00 in0.0 mm 0.00 in0.0 mm
02:42 AM 44.8°F7.1°C 42.4°F5.8°C 91% Calm Calm -- 29.98 in1015.2 mb 0.00 in0.0 mm 0.00 in0.0 mm 0.00 in0.0 mm
02:47 AM 44.6°F7.0°C 42.3°F5.7°C 91% Calm Calm -- 29.98 in1015.2 mb 0.00 in0.0 mm 0.00 in0.0 mm 0.00 in0.0 mm
02:52 AM 44.4°F6.9°C 42.3°F5.7°C 92% Calm Calm -- 29.98 in1015.2 mb 0.00 in0.0 mm 0.00 in0.0 mm 0.00 in0.0 mm
02:57 AM 44.2°F6.8°C 42.1°F5.6°C 92% Calm Calm -- 29.98 in1015.2 mb 0.00 in0.0 mm 0.00 in0.0 mm 0.00 in0.0 mm
03:02 AM 44.2°F6.8°C 42.1°F5.6°C 92% Calm Calm -- 29.98 in1015.2 mb 0.00 in0.0 mm 0.00 in0.0 mm 0.00 in0.0 mm
03:07 AM 44.1°F6.7°C 41.9°F5.5°C 92% Calm Calm -- 29.98 in1015.2 mb 0.00 in0.0 mm 0.00 in0.0 mm 0.00 in0.0 mm
03:15 AM 44.2°F6.8°C 42.1°F5.6°C 92% Calm Calm -- 29.97 in1014.9 mb 0.00 in0.0 mm 0.00 in0.0 mm 0.00 in0.0 mm
03:20 AM 44.1°F6.7°C 41.9°F5.5°C 92% Calm Calm -- 29.97 in1014.9 mb 0.00 in0.0 mm 0.00 in0.0 mm 0.00 in0.0 mm
03:25 AM 44.1°F6.7°C 41.9°F5.5°C 92% Calm Calm -- 29.97 in1014.9 mb 0.00 in0.0 mm 0.00 in0.0 mm 0.00 in0.0 mm
03:30 AM 43.7°F6.5°C 41.5°F5.3°C 92% Calm Calm -- 29.97 in1014.9 mb 0.00 in0.0 mm 0.00 in0.0 mm 0.00 in0.0 mm
03:35 AM 43.3°F6.3°C 41.4°F5.2°C 93% Calm Calm -- 29.97 in1014.9 mb 0.00 in0.0 mm 0.00 in0.0 mm 0.00 in0.0 mm
03:40 AM 43.5°F6.4°C 41.5°F5.3°C 93% Calm Calm -- 29.97 in1014.9 mb 0.00 in0.0 mm 0.00 in0.0 mm 0.00 in0.0 mm
03:45 AM 43.7°F6.5°C 41.7°F5.4°C 93% Calm Calm -- 29.97 in1014.9 mb 0.00 in0.0 mm 0.00 in0.0 mm 0.00 in0.0 mm
03:50 AM 43.7°F6.5°C 41.7°F5.4°C 93% Calm Calm -- 29.97 in1014.9 mb 0.00 in0.0 mm 0.00 in0.0 mm 0.00 in0.0 mm
03:55 AM 43.5°F6.4°C 41.5°F5.3°C 93% Calm Calm -- 29.97 in1014.9 mb 0.00 in0.0 mm 0.00 in0.0 mm 0.00 in0.0 mm
04:00 AM 43.9°F6.6°C 41.9°F5.5°C 93% Calm Calm -- 29.96 in1014.6 mb 0.00 in0.0 mm 0.00 in0.0 mm 0.00 in0.0 mm
04:05 AM 44.1°F6.7°C 42.1°F5.6°C 93% Calm Calm -- 29.97 in1014.9 mb 0.00 in0.0 mm 0.00 in0.0 mm 0.00 in0.0 mm
04:10 AM 43.9°F6.6°C 41.9°F5.5°C 93% Calm Calm -- 29.97 in1014.9 mb 0.00 in0.0 mm 0.00 in0.0 mm 0.00 in0.0 mm
04:15 AM 43.7°F6.5°C 41.7°F5.4°C 93% Calm Calm -- 29.96 in1014.6 mb 0.00 in0.0 mm 0.00 in0.0 mm 0.00 in0.0 mm
04:20 AM 43.5°F6.4°C 41.5°F5.3°C 93% Calm Calm -- 29.96 in1014.6 mb 0.00 in0.0 mm 0.00 in0.0 mm 0.00 in0.0 mm
04:25 AM 43.3°F6.3°C 41.4°F5.2°C 93% Calm Calm -- 29.97 in1014.9 mb 0.00 in0.0 mm 0.00 in0.0 mm 0.00 in0.0 mm
04:30 AM 43.0°F6.1°C 41.0°F5.0°C 93% Calm Calm -- 29.97 in1014.9 mb 0.00 in0.0 mm 0.00 in0.0 mm 0.00 in0.0 mm
04:35 AM 42.8°F6.0°C 40.8°F4.9°C 93% Calm Calm -- 29.97 in1014.9 mb 0.00 in0.0 mm 0.00 in0.0 mm 0.00 in0.0 mm
04:40 AM 43.2°F6.2°C 41.4°F5.2°C 94% Calm Calm -- 29.98 in1015.2 mb 0.00 in0.0 mm 0.00 in0.0 mm 0.00 in0.0 mm
04:45 AM 43.3°F6.3°C 41.5°F5.3°C 94% Calm Calm -- 29.98 in1015.2 mb 0.00 in0.0 mm 0.00 in0.0 mm 0.00 in0.0 mm
04:50 AM 43.2°F6.2°C 41.4°F5.2°C 94% Calm Calm -- 29.97 in1014.9 mb 0.00 in0.0 mm 0.00 in0.0 mm 0.00 in0.0 mm
04:55 AM 43.5°F6.4°C 41.7°F5.4°C 94% Calm Calm -- 29.97 in1014.9 mb 0.00 in0.0 mm 0.00 in0.0 mm 0.00 in0.0 mm
05:00 AM 43.3°F6.3°C 41.5°F5.3°C 94% Calm Calm -- 29.97 in1014.9 mb 0.00 in0.0 mm 0.00 in0.0 mm 0.00 in0.0 mm
05:05 AM 43.0°F6.1°C 41.2°F5.1°C 94% Calm Calm -- 29.98 in1015.2 mb 0.00 in0.0 mm 0.00 in0.0 mm 0.00 in0.0 mm
05:10 AM 43.2°F6.2°C 41.4°F5.2°C 94% Calm Calm -- 29.98 in1015.2 mb 0.00 in0.0 mm 0.00 in0.0 mm 0.00 in0.0 mm
05:15 AM 43.2°F6.2°C 41.4°F5.2°C 94% Calm Calm -- 29.97 in1014.9 mb 0.00 in0.0 mm 0.00 in0.0 mm 0.00 in0.0 mm
05:20 AM 42.6°F5.9°C 40.8°F4.9°C 94% Calm Calm -- 29.98 in1015.2 mb 0.00 in0.0 mm 0.00 in0.0 mm 0.00 in0.0 mm
05:25 AM 42.4°F5.8°C 40.6°F4.8°C 94% Calm Calm -- 29.98 in1015.2 mb 0.00 in0.0 mm 0.00 in0.0 mm 0.00 in0.0 mm
05:30 AM 42.3°F5.7°C 40.5°F4.7°C 94% Calm Calm -- 29.97 in1014.9 mb 0.00 in0.0 mm 0.00 in0.0 mm 0.00 in0.0 mm
05:35 AM 42.3°F5.7°C 40.5°F4.7°C 94% Calm Calm -- 29.97 in1014.9 mb 0.00 in0.0 mm 0.00 in0.0 mm 0.00 in0.0 mm
05:40 AM 41.9°F5.5°C 40.1°F4.5°C 94% Calm Calm -- 29.97 in1014.9 mb 0.00 in0.0 mm 0.00 in0.0 mm 0.00 in0.0 mm
05:45 AM 41.7°F5.4°C 39.9°F4.4°C 94% Calm Calm -- 29.96 in1014.6 mb 0.00 in0.0 mm 0.00 in0.0 mm 0.00 in0.0 mm
05:50 AM 41.5°F5.3°C 39.7°F4.3°C 94% Calm Calm -- 29.97 in1014.9 mb 0.00 in0.0 mm 0.00 in0.0 mm 0.00 in0.0 mm
05:55 AM 41.9°F5.5°C 40.1°F4.5°C 94% Calm Calm -- 29.97 in1014.9 mb 0.00 in0.0 mm 0.00 in0.0 mm 0.00 in0.0 mm
06:00 AM 41.7°F5.4°C 39.9°F4.4°C 94% Calm Calm -- 29.97 in1014.9 mb 0.00 in0.0 mm 0.00 in0.0 mm 0.00 in0.0 mm
06:05 AM 41.7°F5.4°C 40.3°F4.6°C 95% Calm Calm -- 29.97 in1014.9 mb 0.00 in0.0 mm 0.00 in0.0 mm 0.00 in0.0 mm
06:10 AM 41.9°F5.5°C 40.5°F4.7°C 95% Calm Calm -- 29.97 in1014.9 mb 0.00 in0.0 mm 0.00 in0.0 mm 0.00 in0.0 mm
06:15 AM 42.1°F5.6°C 40.6°F4.8°C 95% Calm Calm -- 29.97 in1014.9 mb 0.00 in0.0 mm 0.00 in0.0 mm 0.00 in0.0 mm
06:20 AM 42.1°F5.6°C 40.6°F4.8°C 95% Calm Calm -- 29.97 in1014.9 mb 0.00 in0.0 mm 0.00 in0.0 mm 0.00 in0.0 mm
06:25 AM 41.5°F5.3°C 40.1°F4.5°C 95% Calm Calm -- 29.96 in1014.6 mb 0.00 in0.0 mm 0.00 in0.0 mm 0.00 in0.0 mm
06:30 AM 41.7°F5.4°C 40.3°F4.6°C 95% Calm Calm -- 29.98 in1015.2 mb 0.00 in0.0 mm 0.00 in0.0 mm 0.00 in0.0 mm
06:35 AM 41.7°F5.4°C 40.3°F4.6°C 95% Calm Calm -- 29.97 in1014.9 mb 0.00 in0.0 mm 0.00 in0.0 mm 0.00 in0.0 mm
06:40 AM 41.9°F5.5°C 40.5°F4.7°C 95% Calm Calm -- 29.97 in1014.9 mb 0.00 in0.0 mm 0.00 in0.0 mm 0.00 in0.0 mm
06:45 AM 42.1°F5.6°C 40.6°F4.8°C 95% Calm Calm -- 29.98 in1015.2 mb 0.00 in0.0 mm 0.00 in0.0 mm 0.00 in0.0 mm
06:50 AM 41.7°F5.4°C 40.3°F4.6°C 95% Calm Calm -- 29.98 in1015.2 mb 0.00 in0.0 mm 0.00 in0.0 mm 0.00 in0.0 mm
06:55 AM 42.1°F5.6°C 40.6°F4.8°C 95% Calm Calm -- 29.99 in1015.6 mb 0.00 in0.0 mm 0.00 in0.0 mm 0.00 in0.0 mm
07:00 AM 41.9°F5.5°C 40.5°F4.7°C 95% Calm Calm -- 29.98 in1015.2 mb 0.00 in0.0 mm 0.00 in0.0 mm 0.00 in0.0 mm
07:05 AM 41.7°F5.4°C 40.3°F4.6°C 95% Calm Calm -- 29.98 in1015.2 mb 0.00 in0.0 mm 0.00 in0.0 mm 0.00 in0.0 mm
07:10 AM 41.7°F5.4°C 40.3°F4.6°C 95% Calm Calm -- 29.98 in1015.2 mb 0.00 in0.0 mm 0.00 in0.0 mm 0.00 in0.0 mm
07:15 AM 41.7°F5.4°C 40.3°F4.6°C 95% Calm Calm -- 29.98 in1015.2 mb 0.00 in0.0 mm 0.00 in0.0 mm 0.00 in0.0 mm
07:20 AM 41.9°F5.5°C 40.5°F4.7°C 95% Calm Calm -- 29.98 in1015.2 mb 0.00 in0.0 mm 0.00 in0.0 mm 0.00 in0.0 mm
07:25 AM 41.7°F5.4°C 40.3°F4.6°C 95% Calm Calm -- 29.99 in1015.6 mb 0.00 in0.0 mm 0.00 in0.0 mm 0.00 in0.0 mm
07:30 AM 41.7°F5.4°C 40.3°F4.6°C 95% Calm Calm -- 29.99 in1015.6 mb 0.00 in0.0 mm 0.00 in0.0 mm 0.00 in0.0 mm
07:35 AM 42.1°F5.6°C 40.6°F4.8°C 95% Calm Calm -- 29.99 in1015.6 mb 0.00 in0.0 mm 0.00 in0.0 mm 0.00 in0.0 mm
07:40 AM 43.3°F6.3°C 42.4°F5.8°C 96% Calm Calm -- 29.99 in1015.6 mb 0.00 in0.0 mm 0.00 in0.0 mm 0.00 in0.0 mm
07:45 AM 45.3°F7.4°C 44.4°F6.9°C 96% Calm Calm -- 29.99 in1015.6 mb 0.00 in0.0 mm 0.00 in0.0 mm 0.00 in0.0 mm
07:50 AM 46.4°F8.0°C 45.0°F7.2°C 95% Calm Calm -- 29.99 in1015.6 mb 0.00 in0.0 mm 0.00 in0.0 mm 0.00 in0.0 mm
07:55 AM 47.5°F8.6°C 46.0°F7.8°C 95% Calm Calm -- 29.99 in1015.6 mb 0.00 in0.0 mm 0.00 in0.0 mm 0.00 in0.0 mm
08:00 AM 48.4°F9.1°C 46.4°F8.0°C 93% Calm Calm -- 30.00 in1015.9 mb 0.00 in0.0 mm 0.00 in0.0 mm 0.00 in0.0 mm
08:05 AM 47.3°F8.5°C 45.1°F7.3°C 92% Calm Calm -- 30.00 in1015.9 mb 0.00 in0.0 mm 0.00 in0.0 mm 0.00 in0.0 mm
08:10 AM 47.7°F8.7°C 45.3°F7.4°C 91% Calm Calm -- 29.99 in1015.6 mb 0.00 in0.0 mm 0.00 in0.0 mm 0.00 in0.0 mm
08:15 AM 48.9°F9.4°C 44.6°F7.0°C 85% Calm Calm -- 30.01 in1016.3 mb 0.00 in0.0 mm 0.00 in0.0 mm 0.00 in0.0 mm
08:20 AM 52.2°F11.2°C 45.9°F7.7°C 79% Calm Calm -- 30.00 in1015.9 mb 0.00 in0.0 mm 0.00 in0.0 mm 0.00 in0.0 mm
08:25 AM 54.0°F12.2°C 47.3°F8.5°C 78% Calm Calm -- 30.00 in1015.9 mb 0.00 in0.0 mm 0.00 in0.0 mm 0.00 in0.0 mm
08:30 AM 54.9°F12.7°C 47.1°F8.4°C 75% Calm Calm -- 30.00 in1015.9 mb 0.00 in0.0 mm 0.00 in0.0 mm 0.00 in0.0 mm
08:35 AM 56.1°F13.4°C 46.6°F8.1°C 70% Calm Calm -- 30.01 in1016.3 mb 0.00 in0.0 mm 0.00 in0.0 mm 0.00 in0.0 mm
08:40 AM 56.3°F13.5°C 47.3°F8.5°C 72% Calm Calm -- 30.00 in1015.9 mb 0.00 in0.0 mm 0.00 in0.0 mm 0.00 in0.0 mm
08:45 AM 55.8°F13.2°C 47.3°F8.5°C 73% 0.7 mph N1.1 kmh N 1.1 mph1.8 kmh 30.00 in1015.9 mb 0.00 in0.0 mm 0.00 in0.0 mm 0.00 in0.0 mm
08:50 AM 55.0°F12.8°C 46.9°F8.3°C 74% 0.7 mph NNE1.1 kmh NNE 1.1 mph1.8 kmh 29.99 in1015.6 mb 0.00 in0.0 mm 0.00 in0.0 mm 0.00 in0.0 mm
08:55 AM 55.0°F12.8°C 47.3°F8.5°C 75% Calm Calm -- 29.99 in1015.6 mb 0.00 in0.0 mm 0.00 in0.0 mm 0.00 in0.0 mm
09:00 AM 54.5°F12.5°C 46.8°F8.2°C 75% 1.1 mph N1.8 kmh N 1.1 mph1.8 kmh 30.00 in1015.9 mb 0.00 in0.0 mm 0.00 in0.0 mm 0.00 in0.0 mm
09:05 AM 54.7°F12.6°C 46.2°F7.9°C 73% 0.7 mph N1.1 kmh N 1.1 mph1.8 kmh 29.99 in1015.6 mb 0.00 in0.0 mm 0.00 in0.0 mm 0.00 in0.0 mm
09:10 AM 55.0°F12.8°C 47.3°F8.5°C 75% Calm Calm -- 29.99 in1015.6 mb 0.00 in0.0 mm 0.00 in0.0 mm 0.00 in0.0 mm
09:15 AM 55.9°F13.3°C 47.8°F8.8°C 74% Calm Calm -- 29.99 in1015.6 mb 0.00 in0.0 mm 0.00 in0.0 mm 0.00 in0.0 mm
09:20 AM 57.6°F14.2°C 47.5°F8.6°C 69% 0.4 mph NE0.6 kmh NE 1.1 mph1.8 kmh 29.99 in1015.6 mb 0.00 in0.0 mm 0.00 in0.0 mm 0.00 in0.0 mm
09:25 AM 56.8°F13.8°C 47.1°F8.4°C 70% Calm Calm -- 29.99 in1015.6 mb 0.00 in0.0 mm 0.00 in0.0 mm 0.00 in0.0 mm
09:30 AM 58.8°F14.9°C 46.8°F8.2°C 64% Calm Calm -- 29.99 in1015.6 mb 0.00 in0.0 mm 0.00 in0.0 mm 0.00 in0.0 mm
09:35 AM 60.6°F15.9°C 48.4°F9.1°C 64% Calm Calm -- 30.00 in1015.9 mb 0.00 in0.0 mm 0.00 in0.0 mm 0.00 in0.0 mm
09:40 AM 60.4°F15.8°C 49.5°F9.7°C 67% 0.7 mph NE1.1 kmh NE 1.1 mph1.8 kmh 30.00 in1015.9 mb 0.00 in0.0 mm 0.00 in0.0 mm 0.00 in0.0 mm
09:45 AM 59.0°F15.0°C 48.4°F9.1°C 68% 0.9 mph NE1.4 kmh NE 1.1 mph1.8 kmh 30.00 in1015.9 mb 0.00 in0.0 mm 0.00 in0.0 mm 0.00 in0.0 mm
09:50 AM 58.3°F14.6°C 48.6°F9.2°C 70% 0.4 mph WNW0.6 kmh WNW 1.1 mph1.8 kmh 30.00 in1015.9 mb 0.00 in0.0 mm 0.00 in0.0 mm 0.00 in0.0 mm
09:55 AM 58.3°F14.6°C 48.2°F9.0°C 69% 0.2 mph NW0.3 kmh NW 1.1 mph1.8 kmh 30.00 in1015.9 mb 0.00 in0.0 mm 0.00 in0.0 mm 0.00 in0.0 mm
10:00 AM 58.3°F14.6°C 47.8°F8.8°C 68% 0.7 mph W1.1 kmh W 1.1 mph1.8 kmh 30.00 in1015.9 mb 0.00 in0.0 mm 0.00 in0.0 mm 0.00 in0.0 mm
10:05 AM 58.8°F14.9°C 47.8°F8.8°C 67% 0.2 mph N0.3 kmh N 1.1 mph1.8 kmh 29.99 in1015.6 mb 0.00 in0.0 mm 0.00 in0.0 mm 0.00 in0.0 mm
10:10 AM 59.4°F15.2°C 46.8°F8.2°C 63% 0.9 mph NW1.4 kmh NW 2.2 mph3.5 kmh 30.00 in1015.9 mb 0.00 in0.0 mm 0.00 in0.0 mm 0.00 in0.0 mm
10:15 AM 59.5°F15.3°C 48.6°F9.2°C 67% Calm Calm -- 29.99 in1015.6 mb 0.00 in0.0 mm 0.00 in0.0 mm 0.00 in0.0 mm
10:20 AM 61.2°F16.2°C 48.0°F8.9°C 62% Calm Calm -- 29.99 in1015.6 mb 0.00 in0.0 mm 0.00 in0.0 mm 0.00 in0.0 mm
10:25 AM 61.9°F16.6°C 50.0°F10.0°C 65% Calm Calm -- 29.99 in1015.6 mb 0.00 in0.0 mm 0.00 in0.0 mm 0.00 in0.0 mm
10:30 AM 61.9°F16.6°C 48.7°F9.3°C 62% 2.0 mph NNW3.2 kmh NNW 3.4 mph5.5 kmh 29.99 in1015.6 mb 0.00 in0.0 mm 0.00 in0.0 mm 0.00 in0.0 mm
10:35 AM 61.5°F16.4°C 47.5°F8.6°C 60% Calm Calm -- 29.99 in1015.6 mb 0.00 in0.0 mm 0.00 in0.0 mm 0.00 in0.0 mm
10:40 AM 61.5°F16.4°C 48.9°F9.4°C 63% 2.5 mph NW4.0 kmh NW 3.4 mph5.5 kmh 29.99 in1015.6 mb 0.00 in0.0 mm 0.00 in0.0 mm 0.00 in0.0 mm
10:45 AM 61.2°F16.2°C 48.0°F8.9°C 62% 1.3 mph NNW2.1 kmh NNW 2.2 mph3.5 kmh 29.99 in1015.6 mb 0.00 in0.0 mm 0.00 in0.0 mm 0.00 in0.0 mm
10:50 AM 62.1°F16.7°C 47.7°F8.7°C 59% 1.3 mph SW2.1 kmh SW 2.2 mph3.5 kmh 29.98 in1015.2 mb 0.00 in0.0 mm 0.00 in0.0 mm 0.00 in0.0 mm
10:55 AM 62.2°F16.8°C 48.2°F9.0°C 60% 1.3 mph NNW2.1 kmh NNW 2.2 mph3.5 kmh 29.99 in1015.6 mb 0.00 in0.0 mm 0.00 in0.0 mm 0.00 in0.0 mm
11:00 AM 62.6°F17.0°C 48.2°F9.0°C 59% 2.0 mph NW3.2 kmh NW 2.2 mph3.5 kmh 29.98 in1015.2 mb 0.00 in0.0 mm 0.00 in0.0 mm 0.00 in0.0 mm
11:05 AM 62.1°F16.7°C 47.1°F8.4°C 58% 1.3 mph WSW2.1 kmh WSW 2.2 mph3.5 kmh 29.98 in1015.2 mb 0.00 in0.0 mm 0.00 in0.0 mm 0.00 in0.0 mm
11:10 AM 63.5°F17.5°C 47.7°F8.7°C 56% 1.3 mph SW2.1 kmh SW 2.2 mph3.5 kmh 29.97 in1014.9 mb 0.00 in0.0 mm 0.00 in0.0 mm 0.00 in0.0 mm
11:15 AM 63.5°F17.5°C 47.1°F8.4°C 55% 0.2 mph SW0.3 kmh SW 1.1 mph1.8 kmh 29.97 in1014.9 mb 0.00 in0.0 mm 0.00 in0.0 mm 0.00 in0.0 mm
11:20 AM 64.6°F18.1°C 46.6°F8.1°C 52% 0.9 mph ESE1.4 kmh ESE 1.1 mph1.8 kmh 29.97 in1014.9 mb 0.00 in0.0 mm 0.00 in0.0 mm 0.00 in0.0 mm
11:25 AM 64.8°F18.2°C 46.8°F8.2°C 52% 2.5 mph SW4.0 kmh SW 3.4 mph5.5 kmh 29.97 in1014.9 mb 0.00 in0.0 mm 0.00 in0.0 mm 0.00 in0.0 mm
11:30 AM 63.9°F17.7°C 47.5°F8.6°C 55% 2.0 mph WSW3.2 kmh WSW 2.2 mph3.5 kmh 29.96 in1014.6 mb 0.00 in0.0 mm 0.00 in0.0 mm 0.00 in0.0 mm
11:35 AM 64.2°F17.9°C 47.7°F8.7°C 55% 0.7 mph SW1.1 kmh SW 1.1 mph1.8 kmh 29.96 in1014.6 mb 0.00 in0.0 mm 0.00 in0.0 mm 0.00 in0.0 mm
11:40 AM 64.8°F18.2°C 47.3°F8.5°C 53% 1.8 mph ESE2.9 kmh ESE 2.2 mph3.5 kmh 29.96 in1014.6 mb 0.00 in0.0 mm 0.00 in0.0 mm 0.00 in0.0 mm
11:45 AM 65.3°F18.5°C 47.3°F8.5°C 52% 2.2 mph S3.5 kmh S 3.4 mph5.5 kmh 29.96 in1014.6 mb 0.00 in0.0 mm 0.00 in0.0 mm 0.00 in0.0 mm
11:50 AM 64.6°F18.1°C 47.5°F8.6°C 54% 2.5 mph WSW4.0 kmh WSW 3.4 mph5.5 kmh 29.96 in1014.6 mb 0.00 in0.0 mm 0.00 in0.0 mm 0.00 in0.0 mm
11:55 AM 64.8°F18.2°C 47.3°F8.5°C 53% 0.9 mph WSW1.4 kmh WSW 1.1 mph1.8 kmh 29.96 in1014.6 mb 0.00 in0.0 mm 0.00 in0.0 mm 0.00 in0.0 mm
12:00 PM 64.8°F18.2°C 49.3°F9.6°C 57% 0.2 mph NNE0.3 kmh NNE 1.1 mph1.8 kmh 29.96 in1014.6 mb 0.00 in0.0 mm 0.00 in0.0 mm 0.00 in0.0 mm
12:05 PM 64.2°F17.9°C 47.3°F8.5°C 54% 1.3 mph WSW2.1 kmh WSW 2.2 mph3.5 kmh 29.95 in1014.2 mb 0.00 in0.0 mm 0.00 in0.0 mm 0.00 in0.0 mm
12:10 PM 64.8°F18.2°C 47.7°F8.7°C 54% 1.6 mph NNW2.6 kmh NNW 2.2 mph3.5 kmh 29.95 in1014.2 mb 0.00 in0.0 mm 0.00 in0.0 mm 0.00 in0.0 mm
12:15 PM 64.9°F18.3°C 46.9°F8.3°C 52% 2.7 mph SW4.3 kmh SW 4.5 mph7.2 kmh 29.95 in1014.2 mb 0.00 in0.0 mm 0.00 in0.0 mm 0.00 in0.0 mm
12:20 PM 65.1°F18.4°C 48.0°F8.9°C 54% 0.2 mph NNW0.3 kmh NNW 1.1 mph1.8 kmh 29.95 in1014.2 mb 0.00 in0.0 mm 0.00 in0.0 mm 0.00 in0.0 mm
12:25 PM 66.4°F19.1°C 47.3°F8.5°C 50% 0.7 mph WSW1.1 kmh WSW 1.1 mph1.8 kmh 29.94 in1013.9 mb 0.00 in0.0 mm 0.00 in0.0 mm 0.00 in0.0 mm
12:30 PM 65.8°F18.8°C 48.2°F9.0°C 53% 0.7 mph WSW1.1 kmh WSW 1.1 mph1.8 kmh 29.94 in1013.9 mb 0.00 in0.0 mm 0.00 in0.0 mm 0.00 in0.0 mm
12:35 PM 66.2°F19.0°C 47.7°F8.7°C 51% 3.4 mph NW5.5 kmh NW 3.4 mph5.5 kmh 29.93 in1013.5 mb 0.00 in0.0 mm 0.00 in0.0 mm 0.00 in0.0 mm
12:40 PM 65.5°F18.6°C 47.5°F8.6°C 52% 0.7 mph N1.1 kmh N 1.1 mph1.8 kmh 29.94 in1013.9 mb 0.00 in0.0 mm 0.00 in0.0 mm 0.00 in0.0 mm
12:45 PM 66.0°F18.9°C 46.9°F8.3°C 50% 2.5 mph NW4.0 kmh NW 3.4 mph5.5 kmh 29.94 in1013.9 mb 0.00 in0.0 mm 0.00 in0.0 mm 0.00 in0.0 mm
12:50 PM 66.0°F18.9°C 47.5°F8.6°C 51% 1.8 mph S2.9 kmh S 2.2 mph3.5 kmh 29.93 in1013.5 mb 0.00 in0.0 mm 0.00 in0.0 mm 0.00 in0.0 mm
12:55 PM 66.6°F19.2°C 46.8°F8.2°C 49% 2.7 mph SW4.3 kmh SW 3.4 mph5.5 kmh 29.92 in1013.2 mb 0.00 in0.0 mm 0.00 in0.0 mm 0.00 in0.0 mm
01:00 PM 66.7°F19.3°C 46.9°F8.3°C 49% 2.5 mph NNW4.0 kmh NNW 3.4 mph5.5 kmh 29.92 in1013.2 mb 0.00 in0.0 mm 0.00 in0.0 mm 0.00 in0.0 mm
01:05 PM 67.1°F19.5°C 47.8°F8.8°C 50% 2.5 mph WNW4.0 kmh WNW 3.4 mph5.5 kmh 29.92 in1013.2 mb 0.00 in0.0 mm 0.00 in0.0 mm 0.00 in0.0 mm
01:10 PM 66.7°F19.3°C 46.4°F8.0°C 48% Calm Calm -- 29.91 in1012.9 mb 0.00 in0.0 mm 0.00 in0.0 mm 0.00 in0.0 mm
01:15 PM 67.6°F19.8°C 46.8°F8.2°C 47% 1.6 mph WNW2.6 kmh WNW 2.2 mph3.5 kmh 29.91 in1012.9 mb 0.00 in0.0 mm 0.00 in0.0 mm 0.00 in0.0 mm
01:20 PM 68.0°F20.0°C 48.2°F9.0°C 49% 1.8 mph SW2.9 kmh SW 2.2 mph3.5 kmh 29.90 in1012.5 mb 0.00 in0.0 mm 0.00 in0.0 mm 0.00 in0.0 mm
01:25 PM 67.8°F19.9°C 46.9°F8.3°C 47% 1.8 mph SW2.9 kmh SW 3.4 mph5.5 kmh 29.89 in1012.2 mb 0.00 in0.0 mm 0.00 in0.0 mm 0.00 in0.0 mm
01:30 PM 67.6°F19.8°C 48.4°F9.1°C 50% 0.9 mph SW1.4 kmh SW 2.2 mph3.5 kmh 29.90 in1012.5 mb 0.00 in0.0 mm 0.00 in0.0 mm 0.00 in0.0 mm
01:36 PM 67.5°F19.7°C 47.1°F8.4°C 48% 1.6 mph WNW2.6 kmh WNW 2.2 mph3.5 kmh 29.89 in1012.2 mb 0.00 in0.0 mm 0.00 in0.0 mm 0.00 in0.0 mm
01:41 PM 68.4°F20.2°C 47.3°F8.5°C 47% 0.9 mph WSW1.4 kmh WSW 1.1 mph1.8 kmh 29.89 in1012.2 mb 0.00 in0.0 mm 0.00 in0.0 mm 0.00 in0.0 mm
01:46 PM 68.0°F20.0°C 45.9°F7.7°C 45% 4.0 mph WSW6.4 kmh WSW 5.8 mph9.3 kmh 29.89 in1012.2 mb 0.00 in0.0 mm 0.00 in0.0 mm 0.00 in0.0 mm
01:51 PM 68.9°F20.5°C 47.3°F8.5°C 46% 2.7 mph NW4.3 kmh NW 3.4 mph5.5 kmh 29.88 in1011.9 mb 0.00 in0.0 mm 0.00 in0.0 mm 0.00 in0.0 mm
01:56 PM 68.7°F20.4°C 48.7°F9.3°C 49% Calm Calm -- 29.88 in1011.9 mb 0.00 in0.0 mm 0.00 in0.0 mm 0.00 in0.0 mm
02:02 PM 69.1°F20.6°C 48.0°F8.9°C 47% 2.5 mph NW4.0 kmh NW 3.4 mph5.5 kmh 29.87 in1011.5 mb 0.00 in0.0 mm 0.00 in0.0 mm 0.00 in0.0 mm
02:07 PM 69.8°F21.0°C 47.7°F8.7°C 45% 4.0 mph SW6.4 kmh SW 5.8 mph9.3 kmh 29.87 in1011.5 mb 0.00 in0.0 mm 0.00 in0.0 mm 0.00 in0.0 mm
02:12 PM 70.5°F21.4°C 48.2°F9.0°C 45% 2.2 mph WNW3.5 kmh WNW 2.2 mph3.5 kmh 29.87 in1011.5 mb 0.00 in0.0 mm 0.00 in0.0 mm 0.00 in0.0 mm
02:18 PM 69.6°F20.9°C 48.6°F9.2°C 47% 1.8 mph SW2.9 kmh SW 3.4 mph5.5 kmh 29.87 in1011.5 mb 0.00 in0.0 mm 0.00 in0.0 mm 0.00 in0.0 mm
02:23 PM 69.8°F21.0°C 48.2°F9.0°C 46% Calm Calm -- 29.86 in1011.2 mb 0.00 in0.0 mm 0.00 in0.0 mm 0.00 in0.0 mm
02:28 PM 69.8°F21.0°C 48.7°F9.3°C 47% 2.2 mph WSW3.5 kmh WSW 3.4 mph5.5 kmh 29.87 in1011.5 mb 0.00 in0.0 mm 0.00 in0.0 mm 0.00 in0.0 mm
02:33 PM 70.3°F21.3°C 48.6°F9.2°C 46% 4.0 mph WNW6.4 kmh WNW 5.8 mph9.3 kmh 29.87 in1011.5 mb 0.00 in0.0 mm 0.00 in0.0 mm 0.00 in0.0 mm
02:38 PM 70.0°F21.1°C 50.5°F10.3°C 50% 0.9 mph NNW1.4 kmh NNW 1.1 mph1.8 kmh 29.87 in1011.5 mb 0.00 in0.0 mm 0.00 in0.0 mm 0.00 in0.0 mm
02:44 PM 70.2°F21.2°C 47.3°F8.5°C 44% 0.9 mph SW1.4 kmh SW 1.1 mph1.8 kmh 29.87 in1011.5 mb 0.00 in0.0 mm 0.00 in0.0 mm 0.00 in0.0 mm
02:51 PM 71.6°F22.0°C 48.6°F9.2°C 44% 2.9 mph WSW4.7 kmh WSW 4.5 mph7.2 kmh 29.86 in1011.2 mb 0.00 in0.0 mm 0.00 in0.0 mm 0.00 in0.0 mm
03:09 PM 71.1°F21.7°C 48.7°F9.3°C 45% 1.3 mph SW2.1 kmh SW 2.2 mph3.5 kmh 29.85 in1010.8 mb 0.00 in0.0 mm 0.00 in0.0 mm 0.00 in0.0 mm
03:14 PM 71.4°F21.9°C 49.6°F9.8°C 46% 1.8 mph WSW2.9 kmh WSW 2.2 mph3.5 kmh 29.85 in1010.8 mb 0.00 in0.0 mm 0.00 in0.0 mm 0.00 in0.0 mm
03:19 PM 71.6°F22.0°C 48.6°F9.2°C 44% 4.0 mph SW6.4 kmh SW 6.9 mph11.1 kmh 29.86 in1011.2 mb 0.00 in0.0 mm 0.00 in0.0 mm 0.00 in0.0 mm
03:24 PM 70.9°F21.6°C 49.6°F9.8°C 47% 0.4 mph SW0.6 kmh SW 1.1 mph1.8 kmh 29.85 in1010.8 mb 0.00 in0.0 mm 0.00 in0.0 mm 0.00 in0.0 mm
03:30 PM 72.0°F22.2°C 49.5°F9.7°C 45% 1.1 mph SW1.8 kmh SW 1.1 mph1.8 kmh 29.84 in1010.5 mb 0.00 in0.0 mm 0.00 in0.0 mm 0.00 in0.0 mm
03:35 PM 71.2°F21.8°C 51.1°F10.6°C 49% 0.9 mph NNW1.4 kmh NNW 1.1 mph1.8 kmh 29.85 in1010.8 mb 0.00 in0.0 mm 0.00 in0.0 mm 0.00 in0.0 mm
03:39 PM 71.6°F22.0°C 49.8°F9.9°C 46% 1.3 mph SSW2.1 kmh SSW 2.2 mph3.5 kmh 29.85 in1010.8 mb 0.00 in0.0 mm 0.00 in0.0 mm 0.00 in0.0 mm
03:44 PM 71.1°F21.7°C 50.4°F10.2°C 48% 1.8 mph SW2.9 kmh SW 2.2 mph3.5 kmh 29.85 in1010.8 mb 0.00 in0.0 mm 0.00 in0.0 mm 0.00 in0.0 mm
03:50 PM 71.2°F21.8°C 49.5°F9.7°C 46% 4.5 mph WNW7.2 kmh WNW 4.5 mph7.2 kmh 29.85 in1010.8 mb 0.00 in0.0 mm 0.00 in0.0 mm 0.00 in0.0 mm
03:54 PM 71.4°F21.9°C 49.6°F9.8°C 46% 2.0 mph W3.2 kmh W 3.4 mph5.5 kmh 29.85 in1010.8 mb 0.00 in0.0 mm 0.00 in0.0 mm 0.00 in0.0 mm
03:59 PM 71.6°F22.0°C 49.8°F9.9°C 46% 3.4 mph WSW5.5 kmh WSW 5.8 mph9.3 kmh 29.85 in1010.8 mb 0.00 in0.0 mm 0.00 in0.0 mm 0.00 in0.0 mm
04:05 PM 71.6°F22.0°C 49.8°F9.9°C 46% 3.1 mph SW5.0 kmh SW 4.5 mph7.2 kmh 29.84 in1010.5 mb 0.00 in0.0 mm 0.00 in0.0 mm 0.00 in0.0 mm
04:10 PM 71.4°F21.9°C 49.6°F9.8°C 46% 2.5 mph NW4.0 kmh NW 3.4 mph5.5 kmh 29.84 in1010.5 mb 0.00 in0.0 mm 0.00 in0.0 mm 0.00 in0.0 mm
04:15 PM 71.8°F22.1°C 50.0°F10.0°C 46% 2.9 mph SW4.7 kmh SW 3.4 mph5.5 kmh 29.84 in1010.5 mb 0.00 in0.0 mm 0.00 in0.0 mm 0.00 in0.0 mm
04:20 PM 71.2°F21.8°C 49.5°F9.7°C 46% 2.2 mph SSW3.5 kmh SSW 3.4 mph5.5 kmh 29.83 in1010.2 mb 0.00 in0.0 mm 0.00 in0.0 mm 0.00 in0.0 mm
04:25 PM 71.6°F22.0°C 49.8°F9.9°C 46% 6.0 mph WSW9.7 kmh WSW 8.1 mph13.0 kmh 29.83 in1010.2 mb 0.00 in0.0 mm 0.00 in0.0 mm 0.00 in0.0 mm
04:30 PM 70.3°F21.3°C 48.6°F9.2°C 46% 1.8 mph SW2.9 kmh SW 2.2 mph3.5 kmh 29.83 in1010.2 mb 0.00 in0.0 mm 0.00 in0.0 mm 0.00 in0.0 mm
04:35 PM 71.2°F21.8°C 49.5°F9.7°C 46% 1.3 mph SSW2.1 kmh SSW 2.2 mph3.5 kmh 29.83 in1010.2 mb 0.00 in0.0 mm 0.00 in0.0 mm 0.00 in0.0 mm
04:40 PM 71.4°F21.9°C 50.2°F10.1°C 47% 2.0 mph S3.2 kmh S 3.4 mph5.5 kmh 29.83 in1010.2 mb 0.00 in0.0 mm 0.00 in0.0 mm 0.00 in0.0 mm
04:46 PM 71.1°F21.7°C 49.3°F9.6°C 46% 3.4 mph SW5.5 kmh SW 4.5 mph7.2 kmh 29.83 in1010.2 mb 0.00 in0.0 mm 0.00 in0.0 mm 0.00 in0.0 mm
04:50 PM 70.5°F21.4°C 49.3°F9.6°C 47% 0.9 mph SE1.4 kmh SE 1.1 mph1.8 kmh 29.82 in1009.8 mb 0.00 in0.0 mm 0.00 in0.0 mm 0.00 in0.0 mm
04:55 PM 70.7°F21.5°C 49.5°F9.7°C 47% 1.8 mph SSE2.9 kmh SSE 3.4 mph5.5 kmh 29.83 in1010.2 mb 0.00 in0.0 mm 0.00 in0.0 mm 0.00 in0.0 mm
05:01 PM 70.5°F21.4°C 50.0°F10.0°C 48% 1.8 mph S2.9 kmh S 2.2 mph3.5 kmh 29.82 in1009.8 mb 0.00 in0.0 mm 0.00 in0.0 mm 0.00 in0.0 mm
05:06 PM 70.3°F21.3°C 50.4°F10.2°C 49% 2.9 mph WSW4.7 kmh WSW 4.5 mph7.2 kmh 29.83 in1010.2 mb 0.00 in0.0 mm 0.00 in0.0 mm 0.00 in0.0 mm
05:11 PM 69.3°F20.7°C 49.3°F9.6°C 49% 2.9 mph SSE4.7 kmh SSE 3.4 mph5.5 kmh 29.83 in1010.2 mb 0.00 in0.0 mm 0.00 in0.0 mm 0.00 in0.0 mm
05:17 PM 69.3°F20.7°C 49.8°F9.9°C 50% 1.3 mph S2.1 kmh S 2.2 mph3.5 kmh 29.82 in1009.8 mb 0.00 in0.0 mm 0.00 in0.0 mm 0.00 in0.0 mm
05:22 PM 69.4°F20.8°C 50.0°F10.0°C 50% 2.9 mph WSW4.7 kmh WSW 3.4 mph5.5 kmh 29.82 in1009.8 mb 0.00 in0.0 mm 0.00 in0.0 mm 0.00 in0.0 mm
05:27 PM 69.1°F20.6°C 50.2°F10.1°C 51% 1.3 mph SE2.1 kmh SE 2.2 mph3.5 kmh 29.83 in1010.2 mb 0.00 in0.0 mm 0.00 in0.0 mm 0.00 in0.0 mm
05:32 PM 68.5°F20.3°C 50.2°F10.1°C 52% 2.5 mph SSW4.0 kmh SSW 4.5 mph7.2 kmh 29.82 in1009.8 mb 0.00 in0.0 mm 0.00 in0.0 mm 0.00 in0.0 mm
05:37 PM 67.5°F19.7°C 49.8°F9.9°C 53% 3.1 mph S5.0 kmh S 4.5 mph7.2 kmh 29.81 in1009.5 mb 0.00 in0.0 mm 0.00 in0.0 mm 0.00 in0.0 mm
05:42 PM 67.1°F19.5°C 49.5°F9.7°C 53% 3.1 mph SSW5.0 kmh SSW 3.4 mph5.5 kmh 29.83 in1010.2 mb 0.00 in0.0 mm 0.00 in0.0 mm 0.00 in0.0 mm
05:47 PM 66.9°F19.4°C 49.8°F9.9°C 54% 1.6 mph S2.6 kmh S 2.2 mph3.5 kmh 29.82 in1009.8 mb 0.00 in0.0 mm 0.00 in0.0 mm 0.00 in0.0 mm
05:52 PM 66.6°F19.2°C 49.5°F9.7°C 54% 2.9 mph ESE4.7 kmh ESE 3.4 mph5.5 kmh 29.82 in1009.8 mb 0.00 in0.0 mm 0.00 in0.0 mm 0.00 in0.0 mm
05:57 PM 66.4°F19.1°C 49.8°F9.9°C 55% 4.7 mph S7.6 kmh S 5.8 mph9.3 kmh 29.82 in1009.8 mb 0.00 in0.0 mm 0.00 in0.0 mm 0.00 in0.0 mm
06:02 PM 66.2°F19.0°C 50.2°F10.1°C 56% 2.5 mph SW4.0 kmh SW 3.4 mph5.5 kmh 29.82 in1009.8 mb 0.00 in0.0 mm 0.00 in0.0 mm 0.00 in0.0 mm
06:07 PM 65.8°F18.8°C 49.8°F9.9°C 56% 3.6 mph S5.8 kmh S 4.5 mph7.2 kmh 29.82 in1009.8 mb 0.00 in0.0 mm 0.00 in0.0 mm 0.00 in0.0 mm
06:12 PM 65.7°F18.7°C 50.0°F10.0°C 57% 0.9 mph SSW1.4 kmh SSW 1.1 mph1.8 kmh 29.83 in1010.2 mb 0.00 in0.0 mm 0.00 in0.0 mm 0.00 in0.0 mm
06:17 PM 65.5°F18.6°C 49.8°F9.9°C 57% 0.7 mph SSW1.1 kmh SSW 1.1 mph1.8 kmh 29.83 in1010.2 mb 0.00 in0.0 mm 0.00 in0.0 mm 0.00 in0.0 mm
06:22 PM 65.3°F18.5°C 50.2°F10.1°C 58% 2.2 mph SSW3.5 kmh SSW 3.4 mph5.5 kmh 29.83 in1010.2 mb 0.00 in0.0 mm 0.00 in0.0 mm 0.00 in0.0 mm
06:27 PM 65.1°F18.4°C 50.5°F10.3°C 59% 0.4 mph SE0.6 kmh SE 2.2 mph3.5 kmh 29.83 in1010.2 mb 0.00 in0.0 mm 0.00 in0.0 mm 0.00 in0.0 mm
06:32 PM 64.8°F18.2°C 50.2°F10.1°C 59% 0.9 mph WSW1.4 kmh WSW 1.1 mph1.8 kmh 29.82 in1009.8 mb 0.00 in0.0 mm 0.00 in0.0 mm 0.00 in0.0 mm
06:37 PM 64.8°F18.2°C 50.2°F10.1°C 59% 1.6 mph SW2.6 kmh SW 2.2 mph3.5 kmh 29.83 in1010.2 mb 0.00 in0.0 mm 0.00 in0.0 mm 0.00 in0.0 mm
06:42 PM 64.6°F18.1°C 50.0°F10.0°C 59% 1.3 mph S2.1 kmh S 2.2 mph3.5 kmh 29.82 in1009.8 mb 0.00 in0.0 mm 0.00 in0.0 mm 0.00 in0.0 mm
06:47 PM 64.2°F17.9°C 50.5°F10.3°C 61% Calm Calm -- 29.83 in1010.2 mb 0.00 in0.0 mm 0.00 in0.0 mm 0.00 in0.0 mm
06:52 PM 63.7°F17.6°C 50.4°F10.2°C 62% Calm Calm -- 29.83 in1010.2 mb 0.00 in0.0 mm 0.00 in0.0 mm 0.00 in0.0 mm
06:57 PM 63.5°F17.5°C 50.2°F10.1°C 62% Calm Calm -- 29.84 in1010.5 mb 0.00 in0.0 mm 0.00 in0.0 mm 0.00 in0.0 mm
07:03 PM 63.0°F17.2°C 50.5°F10.3°C 64% Calm Calm -- 29.83 in1010.2 mb 0.00 in0.0 mm 0.00 in0.0 mm 0.00 in0.0 mm
07:08 PM 62.6°F17.0°C 50.4°F10.2°C 64% Calm Calm -- 29.83 in1010.2 mb 0.00 in0.0 mm 0.00 in0.0 mm 0.00 in0.0 mm
07:13 PM 62.4°F16.9°C 50.2°F10.1°C 64% Calm Calm -- 29.84 in1010.5 mb 0.00 in0.0 mm 0.00 in0.0 mm 0.00 in0.0 mm
07:22 PM 62.1°F16.7°C 50.2°F10.1°C 65% Calm Calm -- 29.84 in1010.5 mb 0.00 in0.0 mm 0.00 in0.0 mm 0.00 in0.0 mm
07:26 PM 61.5°F16.4°C 50.0°F10.0°C 66% Calm Calm -- 29.84 in1010.5 mb 0.00 in0.0 mm 0.00 in0.0 mm 0.00 in0.0 mm
07:31 PM 60.6°F15.9°C 50.0°F10.0°C 68% Calm Calm -- 29.85 in1010.8 mb 0.00 in0.0 mm 0.00 in0.0 mm 0.00 in0.0 mm
07:36 PM 59.7°F15.4°C 50.0°F10.0°C 70% Calm Calm -- 29.84 in1010.5 mb 0.00 in0.0 mm 0.00 in0.0 mm 0.00 in0.0 mm
07:42 PM 59.2°F15.1°C 49.8°F9.9°C 71% Calm Calm -- 29.84 in1010.5 mb 0.00 in0.0 mm 0.00 in0.0 mm 0.00 in0.0 mm
07:47 PM 58.8°F14.9°C 49.5°F9.7°C 71% Calm Calm -- 29.84 in1010.5 mb 0.00 in0.0 mm 0.00 in0.0 mm 0.00 in0.0 mm
07:51 PM 59.0°F15.0°C 50.0°F10.0°C 72% Calm Calm -- 29.84 in1010.5 mb 0.00 in0.0 mm 0.00 in0.0 mm 0.00 in0.0 mm
07:56 PM 58.6°F14.8°C 49.6°F9.8°C 72% Calm Calm -- 29.84 in1010.5 mb 0.00 in0.0 mm 0.00 in0.0 mm 0.00 in0.0 mm
08:02 PM 59.0°F15.0°C 49.3°F9.6°C 70% Calm Calm -- 29.84 in1010.5 mb 0.00 in0.0 mm 0.00 in0.0 mm 0.00 in0.0 mm
08:06 PM 59.4°F15.2°C 49.6°F9.8°C 70% Calm Calm -- 29.85 in1010.8 mb 0.00 in0.0 mm 0.00 in0.0 mm 0.00 in0.0 mm
08:11 PM 59.0°F15.0°C 49.3°F9.6°C 70% Calm Calm -- 29.85 in1010.8 mb 0.00 in0.0 mm 0.00 in0.0 mm 0.00 in0.0 mm
08:16 PM 58.8°F14.9°C 49.5°F9.7°C 71% Calm Calm -- 29.84 in1010.5 mb 0.00 in0.0 mm 0.00 in0.0 mm 0.00 in0.0 mm
08:22 PM 58.5°F14.7°C 49.5°F9.7°C 72% Calm Calm -- 29.84 in1010.5 mb 0.00 in0.0 mm 0.00 in0.0 mm 0.00 in0.0 mm
08:27 PM 57.7°F14.3°C 49.1°F9.5°C 73% Calm Calm -- 29.85 in1010.8 mb 0.00 in0.0 mm 0.00 in0.0 mm 0.00 in0.0 mm
08:31 PM 57.7°F14.3°C 49.6°F9.8°C 74% 0.4 mph SE0.6 kmh SE 1.1 mph1.8 kmh 29.84 in1010.5 mb 0.00 in0.0 mm 0.00 in0.0 mm 0.00 in0.0 mm
08:36 PM 57.6°F14.2°C 49.5°F9.7°C 74% Calm Calm -- 29.85 in1010.8 mb 0.00 in0.0 mm 0.00 in0.0 mm 0.00 in0.0 mm
08:42 PM 57.4°F14.1°C 49.8°F9.9°C 76% Calm Calm -- 29.85 in1010.8 mb 0.00 in0.0 mm 0.00 in0.0 mm 0.00 in0.0 mm
08:47 PM 57.2°F14.0°C 49.6°F9.8°C 76% 0.4 mph N0.6 kmh N 1.1 mph1.8 kmh 29.85 in1010.8 mb 0.00 in0.0 mm 0.00 in0.0 mm 0.00 in0.0 mm
08:52 PM 57.4°F14.1°C 49.8°F9.9°C 76% Calm Calm -- 29.86 in1011.2 mb 0.00 in0.0 mm 0.00 in0.0 mm 0.00 in0.0 mm
08:57 PM 57.0°F13.9°C 49.5°F9.7°C 76% Calm Calm -- 29.86 in1011.2 mb 0.00 in0.0 mm 0.00 in0.0 mm 0.00 in0.0 mm
09:02 PM 57.0°F13.9°C 49.5°F9.7°C 76% 0.2 mph NNE0.3 kmh NNE 1.1 mph1.8 kmh 29.86 in1011.2 mb 0.00 in0.0 mm 0.00 in0.0 mm 0.00 in0.0 mm
09:07 PM 57.0°F13.9°C 49.5°F9.7°C 76% Calm Calm -- 29.86 in1011.2 mb 0.00 in0.0 mm 0.00 in0.0 mm 0.00 in0.0 mm
09:12 PM 56.8°F13.8°C 49.3°F9.6°C 76% Calm Calm -- 29.86 in1011.2 mb 0.00 in0.0 mm 0.00 in0.0 mm 0.00 in0.0 mm
09:17 PM 56.5°F13.6°C 49.3°F9.6°C 77% 0.4 mph NNE0.6 kmh NNE 1.1 mph1.8 kmh 29.86 in1011.2 mb 0.00 in0.0 mm 0.00 in0.0 mm 0.00 in0.0 mm
09:22 PM 55.8°F13.2°C 49.3°F9.6°C 79% Calm Calm -- 29.86 in1011.2 mb 0.00 in0.0 mm 0.00 in0.0 mm 0.00 in0.0 mm
09:27 PM 55.2°F12.9°C 49.1°F9.5°C 80% Calm Calm -- 29.86 in1011.2 mb 0.00 in0.0 mm 0.00 in0.0 mm 0.00 in0.0 mm
09:33 PM 54.7°F12.6°C 48.9°F9.4°C 81% 1.1 mph NNW1.8 kmh NNW 1.1 mph1.8 kmh 29.86 in1011.2 mb 0.00 in0.0 mm 0.00 in0.0 mm 0.00 in0.0 mm
09:38 PM 54.7°F12.6°C 47.7°F8.7°C 77% Calm Calm -- 29.87 in1011.5 mb 0.00 in0.0 mm 0.00 in0.0 mm 0.00 in0.0 mm
09:43 PM 55.9°F13.3°C 44.8°F7.1°C 66% 0.7 mph NNE1.1 kmh NNE 1.1 mph1.8 kmh 29.87 in1011.5 mb 0.00 in0.0 mm 0.00 in0.0 mm 0.00 in0.0 mm
09:48 PM 57.6°F14.2°C 35.8°F2.1°C 44% 2.2 mph N3.5 kmh N 2.2 mph3.5 kmh 29.86 in1011.2 mb 0.00 in0.0 mm 0.00 in0.0 mm 0.00 in0.0 mm
09:53 PM 59.9°F15.5°C 32.9°F0.5°C 36% 2.7 mph N4.3 kmh N 3.4 mph5.5 kmh 29.87 in1011.5 mb 0.00 in0.0 mm 0.00 in0.0 mm 0.00 in0.0 mm
09:58 PM 60.1°F15.6°C 31.6°F-0.2°C 34% 0.9 mph NNE1.4 kmh NNE 1.1 mph1.8 kmh 29.88 in1011.9 mb 0.00 in0.0 mm 0.00 in0.0 mm 0.00 in0.0 mm
10:03 PM 59.9°F15.5°C 29.3°F-1.5°C 31% 2.9 mph NW4.7 kmh NW 4.5 mph7.2 kmh 29.87 in1011.5 mb 0.00 in0.0 mm 0.00 in0.0 mm 0.00 in0.0 mm
10:08 PM 59.7°F15.4°C 28.2°F-2.1°C 30% 2.9 mph N4.7 kmh N 4.5 mph7.2 kmh 29.88 in1011.9 mb 0.00 in0.0 mm 0.00 in0.0 mm 0.00 in0.0 mm
10:13 PM 59.5°F15.3°C 27.3°F-2.6°C 29% 2.7 mph NNE4.3 kmh NNE 4.5 mph7.2 kmh 29.89 in1012.2 mb 0.00 in0.0 mm 0.00 in0.0 mm 0.00 in0.0 mm
10:18 PM 59.2°F15.1°C 26.1°F-3.3°C 28% 1.1 mph NNE1.8 kmh NNE 1.1 mph1.8 kmh 29.88 in1011.9 mb 0.00 in0.0 mm 0.00 in0.0 mm 0.00 in0.0 mm
10:23 PM 59.7°F15.4°C 21.9°F-5.6°C 23% 2.5 mph N4.0 kmh N 3.4 mph5.5 kmh 29.89 in1012.2 mb 0.00 in0.0 mm 0.00 in0.0 mm 0.00 in0.0 mm
10:28 PM 60.6°F15.9°C 24.6°F-4.1°C 25% 0.4 mph NNE0.6 kmh NNE 1.1 mph1.8 kmh 29.88 in1011.9 mb 0.00 in0.0 mm 0.00 in0.0 mm 0.00 in0.0 mm
10:33 PM 59.7°F15.4°C 22.8°F-5.1°C 24% 3.4 mph NNE5.5 kmh NNE 4.5 mph7.2 kmh 29.89 in1012.2 mb 0.00 in0.0 mm 0.00 in0.0 mm 0.00 in0.0 mm
10:38 PM 60.1°F15.6°C 23.2°F-4.9°C 24% 1.6 mph N2.6 kmh N 2.2 mph3.5 kmh 29.89 in1012.2 mb 0.00 in0.0 mm 0.00 in0.0 mm 0.00 in0.0 mm
10:43 PM 60.1°F15.6°C 22.3°F-5.4°C 23% 4.0 mph N6.4 kmh N 4.5 mph7.2 kmh 29.89 in1012.2 mb 0.00 in0.0 mm 0.00 in0.0 mm 0.00 in0.0 mm
10:48 PM 60.4°F15.8°C 22.5°F-5.3°C 23% 2.9 mph NW4.7 kmh NW 4.5 mph7.2 kmh 29.89 in1012.2 mb 0.00 in0.0 mm 0.00 in0.0 mm 0.00 in0.0 mm
10:53 PM 60.8°F16.0°C 22.8°F-5.1°C 23% 4.3 mph N6.9 kmh N 6.9 mph11.1 kmh 29.89 in1012.2 mb 0.00 in0.0 mm 0.00 in0.0 mm 0.00 in0.0 mm
10:58 PM 60.8°F16.0°C 21.7°F-5.7°C 22% 3.1 mph NW5.0 kmh NW 3.4 mph5.5 kmh 29.89 in1012.2 mb 0.00 in0.0 mm 0.00 in0.0 mm 0.00 in0.0 mm
11:03 PM 60.8°F16.0°C 21.7°F-5.7°C 22% 6.7 mph N10.8 kmh N 8.1 mph13.0 kmh 29.89 in1012.2 mb 0.00 in0.0 mm 0.00 in0.0 mm 0.00 in0.0 mm
11:08 PM 60.6°F15.9°C 22.6°F-5.2°C 23% 2.5 mph N4.0 kmh N 3.4 mph5.5 kmh 29.89 in1012.2 mb 0.00 in0.0 mm 0.00 in0.0 mm 0.00 in0.0 mm
11:13 PM 60.4°F15.8°C 23.5°F-4.7°C 24% 1.1 mph N1.8 kmh N 2.2 mph3.5 kmh 29.89 in1012.2 mb 0.00 in0.0 mm 0.00 in0.0 mm 0.00 in0.0 mm
11:18 PM 60.1°F15.6°C 22.3°F-5.4°C 23% 1.8 mph N2.9 kmh N 3.4 mph5.5 kmh 29.89 in1012.2 mb 0.00 in0.0 mm 0.00 in0.0 mm 0.00 in0.0 mm
11:23 PM 59.7°F15.4°C 22.8°F-5.1°C 24% 1.6 mph NNE2.6 kmh NNE 2.2 mph3.5 kmh 29.90 in1012.5 mb 0.00 in0.0 mm 0.00 in0.0 mm 0.00 in0.0 mm
11:28 PM 59.0°F15.0°C 22.3°F-5.4°C 24% 1.8 mph NNE2.9 kmh NNE 2.2 mph3.5 kmh 29.90 in1012.5 mb 0.00 in0.0 mm 0.00 in0.0 mm 0.00 in0.0 mm
11:33 PM 58.8°F14.9°C 23.2°F-4.9°C 25% 0.7 mph N1.1 kmh N 1.1 mph1.8 kmh 29.90 in1012.5 mb 0.00 in0.0 mm 0.00 in0.0 mm 0.00 in0.0 mm
11:38 PM 58.6°F14.8°C 21.9°F-5.6°C 24% 1.3 mph NNE2.1 kmh NNE 3.4 mph5.5 kmh 29.91 in1012.9 mb 0.00 in0.0 mm 0.00 in0.0 mm 0.00 in0.0 mm
11:43 PM 58.6°F14.8°C 23.0°F-5.0°C 25% 0.2 mph NNE0.3 kmh NNE 1.1 mph1.8 kmh 29.91 in1012.9 mb 0.00 in0.0 mm 0.00 in0.0 mm 0.00 in0.0 mm
11:48 PM 57.9°F14.4°C 23.4°F-4.8°C 26% Calm Calm -- 29.91 in1012.9 mb 0.00 in0.0 mm 0.00 in0.0 mm 0.00 in0.0 mm
11:53 PM 57.6°F14.2°C 23.0°F-5.0°C 26% 1.1 mph N1.8 kmh N 2.2 mph3.5 kmh 29.91 in1012.9 mb 0.00 in0.0 mm 0.00 in0.0 mm 0.00 in0.0 mm
11:58 PM 57.9°F14.4°C 22.3°F-5.4°C 25% 2.0 mph NW3.2 kmh NW 2.2 mph3.5 kmh 29.91 in1012.9 mb 0.00 in0.0 mm 0.00 in0.0 mm 0.00 in0.0 mm